Archival Weather

Pocono Mountains Rgnl

Mount Pocono, Pennsylvania (KMPO)

Report from: Tuesday, May 21, 2024 2:53 PM EDT
Current time: Monday, July 22, 2024 7:34 AM EDT

Current weather – Weather history – Daily summaries
Weather forecast

Temperature26.7°C (80.1°F)
Heat index26.9°C (80.5°F)
Dew point11.7°C (53.1°F)
Winds 11 kts (5.7 m/s, 12.7 mph) South-Southwest (200°)
Visibility10 mi. (16.1 km)
Clouds Sky clear
Altimeter30.00 in.Hg (1016 mB)
Relative humidity39 %
Density altitude1,489 ft. (454 m)
Sea-level pressure101.5 kPa (1015 mB, 29.97 in.Hg)
Remarks Fully automated report
Automated weather observing station with precipitation discriminator
Flight conditions Visual Meteorological Conditions
Raw dataKMPO 211853Z AUTO 20011KT 10SM CLR 27/12 A3000 RMK AO2 SLP149 T02670117
An error has occurred. This application may no longer respond until reloaded. Reload 🗙